sensor_id;sensor_type;location;lat;lon;timestamp;pressure;altitude;pressure_sealevel;temperature;humidity
65227;BME280;51805;49.012;12.104;2023-02-03T00:00:16;98732.28;;;22.34;48.39
65227;BME280;51805;49.012;12.104;2023-02-03T00:02:41;98727.66;;;22.35;48.13
65227;BME280;51805;49.012;12.104;2023-02-03T00:05:06;98730.38;;;22.35;48.15
65227;BME280;51805;49.012;12.104;2023-02-03T00:07:32;98727.91;;;22.28;48.31
65227;BME280;51805;49.012;12.104;2023-02-03T00:09:57;98725.72;;;22.25;48.49
65227;BME280;51805;49.012;12.104;2023-02-03T00:12:22;98731.66;;;22.27;48.32
65227;BME280;51805;49.012;12.104;2023-02-03T00:14:47;98727.59;;;22.25;48.31
65227;BME280;51805;49.012;12.104;2023-02-03T00:17:12;98714.31;;;22.23;48.50
65227;BME280;51805;49.012;12.104;2023-02-03T00:19:38;98722.75;;;22.27;48.31
65227;BME280;51805;49.012;12.104;2023-02-03T00:22:03;98727.59;;;22.25;48.38
65227;BME280;51805;49.012;12.104;2023-02-03T00:24:28;98721.63;;;22.23;48.51
65227;BME280;51805;49.012;12.104;2023-02-03T00:26:53;98726.50;;;22.21;48.40
65227;BME280;51805;49.012;12.104;2023-02-03T00:29:18;98724.03;;;22.19;48.44
65227;BME280;51805;49.012;12.104;2023-02-03T00:31:43;98725.09;;;22.18;48.46
65227;BME280;51805;49.012;12.104;2023-02-03T00:34:09;98721.28;;;22.14;48.73
65227;BME280;51805;49.012;12.104;2023-02-03T00:36:34;98725.63;;;22.15;48.54
65227;BME280;51805;49.012;12.104;2023-02-03T00:38:59;98715.88;;;22.14;48.50
65227;BME280;51805;49.012;12.104;2023-02-03T00:41:27;98718.00;;;22.12;48.65
65227;BME280;51805;49.012;12.104;2023-02-03T00:43:53;98719.63;;;22.13;48.60
65227;BME280;51805;49.012;12.104;2023-02-03T00:46:18;98709.59;;;22.09;48.64
65227;BME280;51805;49.012;12.104;2023-02-03T00:48:43;98710.94;;;22.06;48.90
65227;BME280;51805;49.012;12.104;2023-02-03T00:51:08;98706.03;;;22.03;48.88
65227;BME280;51805;49.012;12.104;2023-02-03T00:53:33;98710.34;;;22.04;48.77
65227;BME280;51805;49.012;12.104;2023-02-03T00:55:58;98702.81;;;22.06;48.67
65227;BME280;51805;49.012;12.104;2023-02-03T00:58:24;98710.34;;;22.04;48.87
65227;BME280;51805;49.012;12.104;2023-02-03T01:00:49;98712.53;;;22.02;48.94
65227;BME280;51805;49.012;12.104;2023-02-03T01:03:15;98708.16;;;22.01;48.96
65227;BME280;51805;49.012;12.104;2023-02-03T01:05:40;98707.63;;;21.99;49.00
65227;BME280;51805;49.012;12.104;2023-02-03T01:08:05;98707.63;;;21.99;48.90
65227;BME280;51805;49.012;12.104;2023-02-03T01:10:30;98698.94;;;21.97;48.95
65227;BME280;51805;49.012;12.104;2023-02-03T01:12:55;98693.78;;;21.96;49.07
65227;BME280;51805;49.012;12.104;2023-02-03T01:15:21;98695.41;;;21.97;48.99
65227;BME280;51805;49.012;12.104;2023-02-03T01:17:46;98695.09;;;21.93;49.12
65227;BME280;51805;49.012;12.104;2023-02-03T01:20:11;98691.59;;;21.93;49.01
65227;BME280;51805;49.012;12.104;2023-02-03T01:22:36;98693.22;;;21.94;49.02
65227;BME280;51805;49.012;12.104;2023-02-03T01:25:02;98694.56;;;21.91;49.17
65227;BME280;51805;49.012;12.104;2023-02-03T01:27:27;98702.13;;;21.89;49.10
65227;BME280;51805;49.012;12.104;2023-02-03T01:29:52;98705.91;;;21.88;49.28
65227;BME280;51805;49.012;12.104;2023-02-03T01:32:17;98705.34;;;21.86;49.32
65227;BME280;51805;49.012;12.104;2023-02-03T01:34:42;98704.25;;;21.87;49.07
65227;BME280;51805;49.012;12.104;2023-02-03T01:37:07;98699.09;;;21.86;49.32
65227;BME280;51805;49.012;12.104;2023-02-03T01:39:32;98704.25;;;21.87;49.30
65227;BME280;51805;49.012;12.104;2023-02-03T01:41:58;98702.31;;;21.83;49.17
65227;BME280;51805;49.012;12.104;2023-02-03T01:46:57;98698.56;;;21.84;49.38
65227;BME280;51805;49.012;12.104;2023-02-03T01:49:30;98696.09;;;21.82;49.41
65227;BME280;51805;49.012;12.104;2023-02-03T01:51:57;98691.75;;;21.81;49.24
65227;BME280;51805;49.012;12.104;2023-02-03T01:54:24;98676.59;;;21.80;49.25
65227;BME280;51805;49.012;12.104;2023-02-03T01:56:54;98677.69;;;21.79;49.63
65227;BME280;51805;49.012;12.104;2023-02-03T01:59:22;98678.75;;;21.78;49.31
65227;BME280;51805;49.012;12.104;2023-02-03T02:01:48;98679.56;;;21.79;49.44
65227;BME280;51805;49.012;12.104;2023-02-03T02:04:15;98674.97;;;21.79;49.27
65227;BME280;51805;49.012;12.104;2023-02-03T02:06:40;98674.16;;;21.79;49.22
65227;BME280;51805;49.012;12.104;2023-02-03T02:09:05;98667.91;;;21.78;49.23
65227;BME280;51805;49.012;12.104;2023-02-03T02:11:30;98676.78;;;21.74;49.42
65227;BME280;51805;49.012;12.104;2023-02-03T02:13:57;98663.03;;;21.75;49.43
65227;BME280;51805;49.012;12.104;2023-02-03T02:16:28;98668.91;;;21.72;49.45
65227;BME280;51805;49.012;12.104;2023-02-03T02:32:04;98636.97;;;21.69;49.59
65227;BME280;51805;49.012;12.104;2023-02-03T02:34:51;98633.69;;;21.67;49.49
65227;BME280;51805;49.012;12.104;2023-02-03T02:37:23;98630.44;;;21.65;49.44
65227;BME280;51805;49.012;12.104;2023-02-03T02:40:14;98627.75;;;21.65;49.44
65227;BME280;51805;49.012;12.104;2023-02-03T02:43:00;98603.91;;;21.62;49.65
65227;BME280;51805;49.012;12.104;2023-02-03T02:45:47;98605.53;;;21.63;49.65
65227;BME280;51805;49.012;12.104;2023-02-03T02:48:35;98608.25;;;21.63;49.46
65227;BME280;51805;49.012;12.104;2023-02-03T02:50:59;98616.34;;;21.63;49.70
65227;BME280;51805;49.012;12.104;2023-02-03T02:53:28;98612.81;;;21.63;49.46
65227;BME280;51805;49.012;12.104;2023-02-03T02:55:56;98605.47;;;21.58;49.69
65227;BME280;51805;49.012;12.104;2023-02-03T02:58:22;98600.06;;;21.58;49.64
65227;BME280;51805;49.012;12.104;2023-02-03T03:00:48;98612.81;;;21.58;49.56
65227;BME280;51805;49.012;12.104;2023-02-03T03:03:15;98614.69;;;21.57;49.75
65227;BME280;51805;49.012;12.104;2023-02-03T03:05:40;98607.63;;;21.56;49.64
65227;BME280;51805;49.012;12.104;2023-02-03T03:08:07;98599.75;;;21.55;49.67
65227;BME280;51805;49.012;12.104;2023-02-03T03:10:33;98611.66;;;21.54;49.72
65227;BME280;51805;49.012;12.104;2023-02-03T03:13:02;98612.50;;;21.54;49.88
65227;BME280;51805;49.012;12.104;2023-02-03T03:15:29;98608.13;;;21.53;49.66
65227;BME280;51805;49.012;12.104;2023-02-03T03:17:57;98622.75;;;21.52;49.62
65227;BME280;51805;49.012;12.104;2023-02-03T03:20:25;98613.53;;;21.53;49.78
65227;BME280;51805;49.012;12.104;2023-02-03T03:22:52;98609.47;;;21.51;49.64
65227;BME280;51805;49.012;12.104;2023-02-03T03:25:20;98594.06;;;21.51;49.87
65227;BME280;51805;49.012;12.104;2023-02-03T03:27:49;98593.50;;;21.49;49.91
65227;BME280;51805;49.012;12.104;2023-02-03T03:30:17;98598.09;;;21.48;49.70
65227;BME280;51805;49.012;12.104;2023-02-03T03:32:44;98591.31;;;21.46;49.70
65227;BME280;51805;49.012;12.104;2023-02-03T03:35:10;98616.47;;;21.47;49.87
65227;BME280;51805;49.012;12.104;2023-02-03T03:37:35;98641.63;;;21.47;49.71
65227;BME280;51805;49.012;12.104;2023-02-03T03:40:07;98636.22;;;21.47;49.80
65227;BME280;51805;49.012;12.104;2023-02-03T03:47:31;98654.59;;;21.45;49.95
65227;BME280;51805;49.012;12.104;2023-02-03T03:49:58;98656.47;;;21.44;49.91
65227;BME280;51805;49.012;12.104;2023-02-03T03:52:26;98658.63;;;21.42;49.78
65227;BME280;51805;49.012;12.104;2023-02-03T03:54:53;98647.00;;;21.42;49.95
65227;BME280;51805;49.012;12.104;2023-02-03T03:59:45;98632.66;;;21.41;49.64
65227;BME280;51805;49.012;12.104;2023-02-03T04:02:11;98628.31;;;21.40;49.78
65227;BME280;51805;49.012;12.104;2023-02-03T04:04:37;98625.88;;;21.39;49.89
65227;BME280;51805;49.012;12.104;2023-02-03T04:07:02;98632.91;;;21.40;49.87
65227;BME280;51805;49.012;12.104;2023-02-03T04:09:28;98661.03;;;21.39;49.96
65227;BME280;51805;49.012;12.104;2023-02-03T04:11:53;98679.13;;;21.38;49.97
65227;BME280;51805;49.012;12.104;2023-02-03T04:14:18;98694.53;;;21.38;49.92
65227;BME280;51805;49.012;12.104;2023-02-03T04:16:43;98691.81;;;21.38;49.85
65227;BME280;51805;49.012;12.104;2023-02-03T04:19:08;98681.53;;;21.35;49.99
65227;BME280;51805;49.012;12.104;2023-02-03T04:21:33;98684.22;;;21.35;49.99
65227;BME280;51805;49.012;12.104;2023-02-03T04:23:58;98678.00;;;21.34;49.96
65227;BME280;51805;49.012;12.104;2023-02-03T04:26:23;98678.81;;;21.35;49.97
65227;BME280;51805;49.012;12.104;2023-02-03T04:28:49;98662.28;;;21.31;49.97
65227;BME280;51805;49.012;12.104;2023-02-03T04:31:15;98655.25;;;21.30;50.07
65227;BME280;51805;49.012;12.104;2023-02-03T04:33:40;98651.47;;;21.31;50.00
65227;BME280;51805;49.012;12.104;2023-02-03T04:36:05;98657.69;;;21.32;49.98
65227;BME280;51805;49.012;12.104;2023-02-03T04:38:30;98651.19;;;21.28;50.01
65227;BME280;51805;49.012;12.104;2023-02-03T04:40:56;98643.06;;;21.28;49.89
65227;BME280;51805;49.012;12.104;2023-02-03T04:43:21;98640.91;;;21.30;49.84
65227;BME280;51805;49.012;12.104;2023-02-03T04:45:47;98642.81;;;21.29;49.89
65227;BME280;51805;49.012;12.104;2023-02-03T04:48:12;98644.94;;;21.27;49.89
65227;BME280;51805;49.012;12.104;2023-02-03T04:50:37;98643.31;;;21.26;49.96
65227;BME280;51805;49.012;12.104;2023-02-03T04:53:03;98632.50;;;21.26;50.07
65227;BME280;51805;49.012;12.104;2023-02-03T04:55:28;98624.66;;;21.25;49.97
65227;BME280;51805;49.012;12.104;2023-02-03T04:57:56;98627.34;;;21.25;50.13
65227;BME280;51805;49.012;12.104;2023-02-03T05:00:21;98610.56;;;21.23;50.00
65227;BME280;51805;49.012;12.104;2023-02-03T05:02:47;98609.75;;;21.22;50.00
65227;BME280;51805;49.012;12.104;2023-02-03T05:05:12;98617.84;;;21.22;50.00
65227;BME280;51805;49.012;12.104;2023-02-03T05:07:37;98603.53;;;21.22;49.88
65227;BME280;51805;49.012;12.104;2023-02-03T05:10:02;98608.94;;;21.22;50.02
65227;BME280;51805;49.012;12.104;2023-02-03T05:12:27;98623.50;;;21.21;49.85
65227;BME280;51805;49.012;12.104;2023-02-03T05:14:52;98611.06;;;21.20;49.93
65227;BME280;51805;49.012;12.104;2023-02-03T05:17:18;98599.69;;;21.18;50.00
65227;BME280;51805;49.012;12.104;2023-02-03T05:19:43;98617.81;;;21.17;49.93
65227;BME280;51805;49.012;12.104;2023-02-03T05:22:08;98615.91;;;21.18;49.91
65227;BME280;51805;49.012;12.104;2023-02-03T05:24:33;98619.44;;;21.18;49.93
65227;BME280;51805;49.012;12.104;2023-02-03T05:26:58;98622.16;;;21.18;49.87
65227;BME280;51805;49.012;12.104;2023-02-03T05:29:24;98632.13;;;21.18;50.04
65227;BME280;51805;49.012;12.104;2023-02-03T05:31:49;98640.25;;;21.18;49.79
65227;BME280;51805;49.012;12.104;2023-02-03T05:34:14;98629.44;;;21.18;49.98
65227;BME280;51805;49.012;12.104;2023-02-03T05:36:39;98604.84;;;21.19;49.91
65227;BME280;51805;49.012;12.104;2023-02-03T05:39:04;98609.47;;;21.19;49.76
65227;BME280;51805;49.012;12.104;2023-02-03T05:41:29;98625.69;;;21.19;49.82
65227;BME280;51805;49.012;12.104;2023-02-03T05:43:55;98615.91;;;21.18;49.77
65227;BME280;51805;49.012;12.104;2023-02-03T05:46:20;98617.84;;;21.22;49.79
65227;BME280;51805;49.012;12.104;2023-02-03T05:48:45;98610.56;;;21.23;49.72
65227;BME280;51805;49.012;12.104;2023-02-03T05:51:10;98615.97;;;21.23;49.78
65227;BME280;51805;49.012;12.104;2023-02-03T05:53:35;98629.22;;;21.24;49.63
65227;BME280;51805;49.012;12.104;2023-02-03T05:56:01;98615.97;;;21.23;49.57
65227;BME280;51805;49.012;12.104;2023-02-03T05:58:26;98623.56;;;21.26;49.51
65227;BME280;51805;49.012;12.104;2023-02-03T06:00:51;98628.72;;;21.27;49.51
65227;BME280;51805;49.012;12.104;2023-02-03T06:03:16;98622.50;;;21.27;49.51
65227;BME280;51805;49.012;12.104;2023-02-03T06:05:41;98619.78;;;21.27;49.54
65227;BME280;51805;49.012;12.104;2023-02-03T06:08:07;98634.97;;;21.28;49.51
65227;BME280;51805;49.012;12.104;2023-02-03T06:10:32;98636.56;;;21.29;49.55
65227;BME280;51805;49.012;12.104;2023-02-03T06:12:57;98639.84;;;21.31;49.47
65227;BME280;51805;49.012;12.104;2023-02-03T06:15:22;98631.75;;;21.31;49.34
65227;BME280;51805;49.012;12.104;2023-02-03T06:17:48;98620.94;;;21.31;49.41
65227;BME280;51805;49.012;12.104;2023-02-03T06:20:13;98623.63;;;21.31;49.27
65227;BME280;51805;49.012;12.104;2023-02-03T06:22:39;98614.44;;;21.32;49.24
65227;BME280;51805;49.012;12.104;2023-02-03T06:25:05;98612.31;;;21.34;49.22
65227;BME280;51805;49.012;12.104;2023-02-03T06:27:30;98619.34;;;21.35;49.23
65227;BME280;51805;49.012;12.104;2023-02-03T06:29:55;98613.91;;;21.35;49.36
65227;BME280;51805;49.012;12.104;2023-02-03T06:32:20;98599.31;;;21.36;49.12
65227;BME280;51805;49.012;12.104;2023-02-03T06:34:46;98580.97;;;21.38;49.20
65227;BME280;51805;49.012;12.104;2023-02-03T06:37:11;98578.81;;;21.40;49.05
65227;BME280;51805;49.012;12.104;2023-02-03T06:39:36;98575.03;;;21.41;49.15
65227;BME280;51805;49.012;12.104;2023-02-03T06:42:01;98574.00;;;21.42;49.06
65227;BME280;51805;49.012;12.104;2023-02-03T06:44:28;98568.06;;;21.45;48.90
65227;BME280;51805;49.012;12.104;2023-02-03T06:46:53;98570.50;;;21.47;49.04
65227;BME280;51805;49.012;12.104;2023-02-03T06:49:18;98571.88;;;21.49;48.67
65227;BME280;51805;49.012;12.104;2023-02-03T06:51:44;98564.53;;;21.44;48.99
65227;BME280;51805;49.012;12.104;2023-02-03T06:54:10;98558.03;;;21.45;48.96
65227;BME280;51805;49.012;12.104;2023-02-03T06:56:35;98553.47;;;21.46;48.97
65227;BME280;51805;49.012;12.104;2023-02-03T06:59:00;98555.66;;;21.49;48.87
65227;BME280;51805;49.012;12.104;2023-02-03T07:01:26;98542.69;;;21.51;48.75
65227;BME280;51805;49.012;12.104;2023-02-03T07:03:51;98547.28;;;21.51;48.88
65227;BME280;51805;49.012;12.104;2023-02-03T07:06:17;98555.94;;;21.53;48.74
65227;BME280;51805;49.012;12.104;2023-02-03T07:08:45;98542.97;;;21.55;48.74
65227;BME280;51805;49.012;12.104;2023-02-03T07:11:10;98546.75;;;21.54;48.76
65227;BME280;51805;49.012;12.104;2023-02-03T07:13:35;98542.19;;;21.54;48.84
65227;BME280;51805;49.012;12.104;2023-02-03T07:16:00;98540.81;;;21.57;48.75
65227;BME280;51805;49.012;12.104;2023-02-03T07:18:26;98556.22;;;21.56;48.71
65227;BME280;51805;49.012;12.104;2023-02-03T07:20:51;98563.59;;;21.61;48.76
65227;BME280;51805;49.012;12.104;2023-02-03T07:23:17;98567.09;;;21.61;48.72
65227;BME280;51805;49.012;12.104;2023-02-03T07:25:42;98564.41;;;21.61;48.80
65227;BME280;51805;49.012;12.104;2023-02-03T07:28:07;98562.00;;;21.65;48.72
65227;BME280;51805;49.012;12.104;2023-02-03T07:30:32;98579.84;;;21.66;48.59
65227;BME280;51805;49.012;12.104;2023-02-03T07:32:58;98577.97;;;21.66;48.56
65227;BME280;51805;49.012;12.104;2023-02-03T07:35:23;98573.38;;;21.67;48.61
65227;BME280;51805;49.012;12.104;2023-02-03T07:37:48;98568.75;;;21.67;48.61
65227;BME280;51805;49.012;12.104;2023-02-03T07:40:13;98576.63;;;21.69;48.65
65227;BME280;51805;49.012;12.104;2023-02-03T07:42:42;98584.78;;;21.74;48.30
65227;BME280;51805;49.012;12.104;2023-02-03T07:45:08;98586.66;;;21.73;48.65
65227;BME280;51805;49.012;12.104;2023-02-03T07:47:34;98571.53;;;21.72;48.59
65227;BME280;51805;49.012;12.104;2023-02-03T07:49:59;98574.56;;;21.76;48.47
65227;BME280;51805;49.012;12.104;2023-02-03T07:52:24;98576.19;;;21.77;48.31
65227;BME280;51805;49.012;12.104;2023-02-03T07:54:49;98574.09;;;21.84;48.39
65227;BME280;51805;49.012;12.104;2023-02-03T07:57:15;98558.13;;;21.87;48.52
65227;BME280;51805;49.012;12.104;2023-02-03T07:59:40;98563.56;;;21.92;48.23
65227;BME280;51805;49.012;12.104;2023-02-03T08:02:05;98569.03;;;21.97;48.31
65227;BME280;51805;49.012;12.104;2023-02-03T08:04:32;98580.38;;;21.94;48.42
65227;BME280;51805;49.012;12.104;2023-02-03T08:06:57;98563.88;;;21.96;48.41
65227;BME280;51805;49.012;12.104;2023-02-03T08:09:22;98567.69;;;22.00;48.27
65227;BME280;51805;49.012;12.104;2023-02-03T08:11:48;98595.88;;;22.04;48.66
65227;BME280;51805;49.012;12.104;2023-02-03T08:14:13;98600.78;;;22.07;48.34
65227;BME280;51805;49.012;12.104;2023-02-03T08:16:38;98594.53;;;22.06;48.48
65227;BME280;51805;49.012;12.104;2023-02-03T08:19:05;98574.22;;;22.09;48.43
65227;BME280;51805;49.012;12.104;2023-02-03T08:21:30;98572.34;;;22.09;48.29
65227;BME280;51805;49.012;12.104;2023-02-03T08:24:02;98574.50;;;22.07;48.47
65227;BME280;51805;49.012;12.104;2023-02-03T08:26:27;98579.13;;;22.07;48.74
65227;BME280;51805;49.012;12.104;2023-02-03T08:28:53;98585.34;;;22.12;48.49
65227;BME280;51805;49.012;12.104;2023-02-03T08:31:18;98579.97;;;22.17;48.37
65227;BME280;51805;49.012;12.104;2023-02-03T08:33:43;98572.91;;;22.16;48.41
65227;BME280;51805;49.012;12.104;2023-02-03T08:36:08;98581.59;;;22.18;48.53
65227;BME280;51805;49.012;12.104;2023-02-03T08:38:34;98571.34;;;22.20;48.43
65227;BME280;51805;49.012;12.104;2023-02-03T08:40:59;98562.13;;;22.21;48.38
65227;BME280;51805;49.012;12.104;2023-02-03T08:43:25;98562.13;;;22.21;48.74
65227;BME280;51805;49.012;12.104;2023-02-03T08:45:50;98551.84;;;22.23;48.64
65227;BME280;51805;49.012;12.104;2023-02-03T08:48:15;98557.28;;;22.23;48.69
65227;BME280;51805;49.012;12.104;2023-02-03T08:50:41;98555.66;;;22.22;48.74
65227;BME280;51805;49.012;12.104;2023-02-03T08:53:06;98565.97;;;22.25;48.67
65227;BME280;51805;49.012;12.104;2023-02-03T08:55:31;98560.53;;;22.25;48.78
65227;BME280;51805;49.012;12.104;2023-02-03T08:57:56;98570.03;;;22.28;49.07
65227;BME280;51805;49.012;12.104;2023-02-03T09:00:21;98550.53;;;22.31;48.83
65227;BME280;51805;49.012;12.104;2023-02-03T09:02:47;98551.09;;;22.33;48.96
65227;BME280;51805;49.012;12.104;2023-02-03T09:05:12;98553.53;;;22.34;48.85
65227;BME280;51805;49.012;12.104;2023-02-03T09:07:37;98546.22;;;22.35;49.00
65227;BME280;51805;49.012;12.104;2023-02-03T09:10:02;98553.00;;;22.37;48.99
65227;BME280;51805;49.012;12.104;2023-02-03T09:12:27;98554.63;;;22.38;49.03
65227;BME280;51805;49.012;12.104;2023-02-03T09:14:52;98557.59;;;22.37;49.14
65227;BME280;51805;49.012;12.104;2023-02-03T09:17:17;98540.00;;;22.34;49.26
65227;BME280;51805;49.012;12.104;2023-02-03T09:19:43;98551.38;;;22.36;49.16
65227;BME280;51805;49.012;12.104;2023-02-03T09:22:08;98560.31;;;22.37;49.13
65227;BME280;51805;49.012;12.104;2023-02-03T09:24:33;98562.75;;;22.38;49.19
65227;BME280;51805;49.012;12.104;2023-02-03T09:26:58;98558.16;;;22.39;49.08
65227;BME280;51805;49.012;12.104;2023-02-03T09:29:23;98552.50;;;22.40;49.02
65227;BME280;51805;49.012;12.104;2023-02-03T09:31:48;98547.63;;;22.42;48.88
65227;BME280;51805;49.012;12.104;2023-02-03T09:34:13;98563.31;;;22.40;49.09
65227;BME280;51805;49.012;12.104;2023-02-03T09:36:38;98560.34;;;22.42;49.10
65227;BME280;51805;49.012;12.104;2023-02-03T09:39:04;98561.16;;;22.42;49.03
65227;BME280;51805;49.012;12.104;2023-02-03T09:44:14;98577.41;;;22.42;49.06
65227;BME280;51805;49.012;12.104;2023-02-03T09:46:43;98585.00;;;22.45;49.08
65227;BME280;51805;49.012;12.104;2023-02-03T09:51:37;98561.69;;;22.44;49.09
65227;BME280;51805;49.012;12.104;2023-02-03T09:54:12;98559.00;;;22.44;49.00
65227;BME280;51805;49.012;12.104;2023-02-03T09:56:40;98567.69;;;22.46;48.91
65227;BME280;51805;49.012;12.104;2023-02-03T09:59:07;98567.69;;;22.46;49.02
65227;BME280;51805;49.012;12.104;2023-02-03T10:01:36;98560.91;;;22.49;48.79
65227;BME280;51805;49.012;12.104;2023-02-03T10:04:05;98552.50;;;22.50;48.75
65227;BME280;51805;49.012;12.104;2023-02-03T10:06:37;98547.09;;;22.50;48.90
65227;BME280;51805;49.012;12.104;2023-02-03T10:19:26;98547.72;;;22.57;48.82
65227;BME280;51805;49.012;12.104;2023-02-03T10:21:53;98542.00;;;22.54;48.84
65227;BME280;51805;49.012;12.104;2023-02-03T10:24:24;98537.16;;;22.56;48.73
65227;BME280;51805;49.012;12.104;2023-02-03T10:26:50;98547.72;;;22.57;48.68
65227;BME280;51805;49.012;12.104;2023-02-03T10:29:20;98541.22;;;22.58;48.88
65227;BME280;51805;49.012;12.104;2023-02-03T10:31:47;98550.94;;;22.59;48.74
65227;BME280;51805;49.012;12.104;2023-02-03T10:34:14;98558.03;;;22.60;48.70
65227;BME280;51805;49.012;12.104;2023-02-03T10:36:52;98543.66;;;22.60;48.72
65227;BME280;51805;49.012;12.104;2023-02-03T10:41:43;98544.22;;;22.62;48.70
65227;BME280;51805;49.012;12.104;2023-02-03T10:44:09;98523.34;;;22.62;48.76
65227;BME280;51805;49.012;12.104;2023-02-03T10:46:37;98518.72;;;22.63;48.83
65227;BME280;51805;49.012;12.104;2023-02-03T10:49:03;98505.19;;;22.63;48.70
65227;BME280;51805;49.012;12.104;2023-02-03T10:51:36;98491.38;;;22.64;48.77
65227;BME280;51805;49.012;12.104;2023-02-03T10:54:04;98475.69;;;22.66;48.67
65227;BME280;51805;49.012;12.104;2023-02-03T10:56:30;98471.06;;;22.67;48.71
65227;BME280;51805;49.012;12.104;2023-02-03T10:58:57;98470.53;;;22.70;48.49
65227;BME280;51805;49.012;12.104;2023-02-03T11:01:43;98476.75;;;22.70;48.68
65227;BME280;51805;49.012;12.104;2023-02-03T11:04:22;98490.31;;;22.70;48.56
65227;BME280;51805;49.012;12.104;2023-02-03T11:07:06;98485.97;;;22.69;48.71
65227;BME280;51805;49.012;12.104;2023-02-03T11:09:33;98472.97;;;22.71;48.63
65227;BME280;51805;49.012;12.104;2023-02-03T11:12:15;98463.75;;;22.72;48.75
65227;BME280;51805;49.012;12.104;2023-02-03T11:14:42;98462.94;;;22.72;48.57
65227;BME280;51805;49.012;12.104;2023-02-03T11:17:08;98465.91;;;22.70;48.78
65227;BME280;51805;49.012;12.104;2023-02-03T11:19:36;98448.56;;;22.66;48.92
65227;BME280;51805;49.012;12.104;2023-02-03T11:22:02;98452.66;;;22.64;48.90
65227;BME280;51805;49.012;12.104;2023-02-03T11:26:57;98426.09;;;22.61;48.88
65227;BME280;51805;49.012;12.104;2023-02-03T11:29:27;98439.63;;;22.61;48.83
65227;BME280;51805;49.012;12.104;2023-02-03T11:31:53;98425.00;;;22.62;48.84
65227;BME280;51805;49.012;12.104;2023-02-03T11:34:20;98416.88;;;22.62;48.85
65227;BME280;51805;49.012;12.104;2023-02-03T11:36:48;98405.75;;;22.58;48.87
65227;BME280;51805;49.012;12.104;2023-02-03T11:39:18;98407.13;;;22.61;48.77
65227;BME280;51805;49.012;12.104;2023-02-03T12:00:25;98367.31;;;22.66;48.74
65227;BME280;51805;49.012;12.104;2023-02-03T12:18:14;98368.94;;;22.72;48.73
65227;BME280;51805;49.012;12.104;2023-02-03T12:23:25;98357.00;;;22.73;48.80
65227;BME280;51805;49.012;12.104;2023-02-03T12:33:45;98347.81;;;22.74;48.81
65227;BME280;51805;49.012;12.104;2023-02-03T12:36:31;98350.78;;;22.73;48.81
65227;BME280;51805;49.012;12.104;2023-02-03T12:39:05;98333.69;;;22.72;48.96
65227;BME280;51805;49.012;12.104;2023-02-03T12:41:36;98340.19;;;22.76;48.72
65227;BME280;51805;49.012;12.104;2023-02-03T12:44:12;98336.97;;;22.74;48.91
65227;BME280;51805;49.012;12.104;2023-02-03T12:46:41;98335.31;;;22.73;48.84
65227;BME280;51805;49.012;12.104;2023-02-03T12:51:38;98319.34;;;22.77;48.83
65227;BME280;51805;49.012;12.104;2023-02-03T12:54:17;98312.03;;;22.77;48.90
65227;BME280;51805;49.012;12.104;2023-02-03T12:56:44;98277.59;;;22.78;48.83
65227;BME280;51805;49.012;12.104;2023-02-03T12:59:15;98257.28;;;22.75;48.96
65227;BME280;51805;49.012;12.104;2023-02-03T13:01:48;98260.00;;;22.75;49.09
65227;BME280;51805;49.012;12.104;2023-02-03T13:06:50;98249.72;;;22.77;48.80
65227;BME280;51805;49.012;12.104;2023-02-03T13:11:45;98233.72;;;22.81;48.81
65227;BME280;51805;49.012;12.104;2023-02-03T13:16:41;98220.16;;;22.81;48.89
65227;BME280;51805;49.012;12.104;2023-02-03T13:19:16;98225.31;;;22.82;48.91
65227;BME280;51805;49.012;12.104;2023-02-03T13:21:43;98236.16;;;22.82;48.95
65227;BME280;51805;49.012;12.104;2023-02-03T13:24:11;98229.09;;;22.81;48.92
65227;BME280;51805;49.012;12.104;2023-02-03T13:29:05;98229.09;;;22.81;48.99
65227;BME280;51805;49.012;12.104;2023-02-03T13:39:07;98229.09;;;22.81;49.00
65227;BME280;51805;49.012;12.104;2023-02-03T13:41:43;98199.84;;;22.83;49.05
65227;BME280;51805;49.012;12.104;2023-02-03T13:44:11;98184.13;;;22.80;49.21
65227;BME280;51805;49.012;12.104;2023-02-03T13:46:38;98177.06;;;22.79;49.11
65227;BME280;51805;49.012;12.104;2023-02-03T13:49:04;98198.75;;;22.79;49.06
65227;BME280;51805;49.012;12.104;2023-02-03T13:51:37;98200.38;;;22.80;49.19
65227;BME280;51805;49.012;12.104;2023-02-03T13:54:07;98186.56;;;22.82;49.04
65227;BME280;51805;49.012;12.104;2023-02-03T13:56:37;98186.56;;;22.82;49.14
65227;BME280;51805;49.012;12.104;2023-02-03T14:01:38;98152.16;;;22.77;49.24
65227;BME280;51805;49.012;12.104;2023-02-03T14:04:04;98164.63;;;22.73;49.28
65227;BME280;51805;49.012;12.104;2023-02-03T14:09:02;98142.44;;;22.71;49.22
65227;BME280;51805;49.012;12.104;2023-02-03T14:16:37;98120.72;;;22.76;49.08
65227;BME280;51805;49.012;12.104;2023-02-03T14:19:03;98112.59;;;22.76;49.11
65227;BME280;51805;49.012;12.104;2023-02-03T14:21:30;98127.22;;;22.75;49.20
65227;BME280;51805;49.012;12.104;2023-02-03T14:24:02;98136.97;;;22.76;49.15
65227;BME280;51805;49.012;12.104;2023-02-03T14:26:33;98142.94;;;22.78;49.12
65227;BME280;51805;49.012;12.104;2023-02-03T14:28:59;98157.59;;;22.77;49.16
65227;BME280;51805;49.012;12.104;2023-02-03T14:31:25;98186.28;;;22.78;49.04
65227;BME280;51805;49.012;12.104;2023-02-03T14:36:40;98186.56;;;22.77;49.26
65227;BME280;51805;49.012;12.104;2023-02-03T14:39:32;98200.38;;;22.80;49.22
65227;BME280;51805;49.012;12.104;2023-02-03T14:49:37;98229.38;;;22.85;49.11
65227;BME280;51805;49.012;12.104;2023-02-03T14:52:17;98219.91;;;22.82;49.28
65227;BME280;51805;49.012;12.104;2023-02-03T14:57:33;98233.16;;;22.84;49.17
65227;BME280;51805;49.012;12.104;2023-02-03T15:02:26;98233.72;;;22.81;49.20